createdAt,value
2023-03-11T00:01:34.543Z,-10.23
2023-03-11T00:05:08.911Z,-10.14
2023-03-11T00:08:27.858Z,-9.95
2023-03-11T00:15:13.465Z,-9.96
2023-03-11T00:18:19.999Z,-9.48
2023-03-11T00:25:22.733Z,-9.52
2023-03-11T00:29:18.846Z,-9.33
2023-03-11T00:33:33.654Z,-9.54
2023-03-11T00:37:02.455Z,-10.55
2023-03-11T00:40:29.703Z,-10.95
2023-03-11T00:43:57.837Z,-11.30
2023-03-11T00:47:04.565Z,-11.56
2023-03-11T00:50:40.230Z,-11.65
2023-03-11T00:53:48.888Z,-11.76
2023-03-11T00:56:52.757Z,-11.86
2023-03-11T01:00:25.188Z,-11.80
2023-03-11T01:03:30.069Z,-11.93
2023-03-11T01:06:45.059Z,-11.91
2023-03-11T01:09:51.406Z,-11.86
2023-03-11T01:13:23.641Z,-11.79
2023-03-11T01:16:37.637Z,-11.79
2023-03-11T01:19:58.824Z,-11.70
2023-03-11T01:23:21.589Z,-11.74
2023-03-11T01:26:28.391Z,-11.74
2023-03-11T01:29:35.664Z,-11.73
2023-03-11T01:32:44.578Z,-11.62
2023-03-11T01:36:01.695Z,-11.48
2023-03-11T01:39:10.918Z,-11.53
2023-03-11T01:42:20.632Z,-11.51
2023-03-11T01:45:54.705Z,-11.38
2023-03-11T01:49:04.107Z,-11.20
2023-03-11T01:52:14.268Z,-11.41
2023-03-11T01:55:27.697Z,-11.27
2023-03-11T01:58:42.872Z,-11.28
2023-03-11T02:02:18.550Z,-11.17
2023-03-11T02:05:26.237Z,-11.17
2023-03-11T02:08:35.260Z,-11.01
2023-03-11T02:11:40.451Z,-10.96
2023-03-11T02:14:55.485Z,-10.93
2023-03-11T02:18:06.296Z,-10.83
2023-03-11T02:21:35.804Z,-10.79
2023-03-11T02:24:55.212Z,-10.63
2023-03-11T02:28:24.255Z,-10.52
2023-03-11T02:31:42.457Z,-10.52
2023-03-11T02:35:12.625Z,-10.58
2023-03-11T02:38:32.285Z,-10.40
2023-03-11T02:41:47.072Z,-10.18
2023-03-11T02:45:23.210Z,-10.09
2023-03-11T02:48:31.953Z,-9.90
2023-03-11T02:51:40.356Z,-9.97
2023-03-11T02:55:10.804Z,-9.89
2023-03-11T02:58:25.541Z,-9.69
2023-03-11T03:01:32.036Z,-9.85
2023-03-11T03:04:51.916Z,-9.93
2023-03-11T03:08:20.927Z,-9.63
2023-03-11T03:11:27.828Z,-9.48
2023-03-11T03:14:58.900Z,-9.50
2023-03-11T03:18:03.026Z,-9.54
2023-03-11T03:21:12.508Z,-9.48
2023-03-11T03:24:16.879Z,-9.19
2023-03-11T03:27:20.924Z,-9.14
2023-03-11T03:30:24.595Z,-9.09
2023-03-11T03:33:42.139Z,-8.95
2023-03-11T03:36:45.938Z,-8.96
2023-03-11T03:40:23.684Z,-8.88
2023-03-11T03:43:37.891Z,-8.79
2023-03-11T03:46:41.623Z,-9.07
2023-03-11T03:49:46.780Z,-9.09
2023-03-11T03:52:50.551Z,-9.06
2023-03-11T03:55:58.255Z,-8.91
2023-03-11T03:59:04.982Z,-8.65
2023-03-11T04:02:35.101Z,-8.67
2023-03-11T04:05:38.750Z,-8.52
2023-03-11T04:09:07.892Z,-8.48
2023-03-11T04:12:21.217Z,-8.24
2023-03-11T04:15:24.962Z,-8.12
2023-03-11T04:18:29.368Z,-7.92
2023-03-11T04:21:42.416Z,-7.95
2023-03-11T04:24:49.366Z,-7.84
2023-03-11T04:27:54.020Z,-7.62
2023-03-11T04:30:59.724Z,-7.59
2023-03-11T04:34:38.540Z,-7.75
2023-03-11T04:37:51.052Z,-7.74
2023-03-11T04:41:04.140Z,-7.58
2023-03-11T04:44:08.025Z,-7.47
2023-03-11T04:47:37.247Z,-7.36
2023-03-11T04:50:49.241Z,-7.26
2023-03-11T04:53:53.203Z,-7.33
2023-03-11T04:56:59.435Z,-7.20
2023-03-11T05:00:05.217Z,-7.03
2023-03-11T05:03:18.606Z,-6.91
2023-03-11T05:06:23.097Z,-7.11
2023-03-11T05:09:27.745Z,-7.08
2023-03-11T05:12:35.010Z,-6.94
2023-03-11T05:15:43.619Z,-6.75
2023-03-11T05:18:47.307Z,-6.80
2023-03-11T05:22:05.511Z,-6.58
2023-03-11T05:25:12.567Z,-6.67
2023-03-11T05:28:19.334Z,-6.58
2023-03-11T05:31:27.193Z,-6.16
2023-03-11T05:34:33.915Z,-6.02
2023-03-11T05:37:41.107Z,-5.84
2023-03-11T05:40:48.215Z,-5.80
2023-03-11T05:43:52.831Z,-5.92
2023-03-11T05:46:59.593Z,-5.98
2023-03-11T05:50:14.891Z,-5.94
2023-03-11T05:53:22.417Z,-5.94
2023-03-11T05:56:29.815Z,-5.67
2023-03-11T05:59:46.961Z,-5.77
2023-03-11T06:02:51.644Z,-5.69
2023-03-11T06:05:57.072Z,-5.70
2023-03-11T06:09:01.235Z,-5.57
2023-03-11T06:12:22.301Z,-5.73
2023-03-11T06:15:47.530Z,-5.57
2023-03-11T06:18:51.902Z,-5.62
2023-03-11T06:21:56.094Z,-5.26
2023-03-11T06:25:13.283Z,-5.44
2023-03-11T06:28:21.898Z,-5.40
2023-03-11T06:31:33.768Z,-5.26
2023-03-11T06:34:54.109Z,-4.99
2023-03-11T06:38:05.112Z,-4.90
2023-03-11T06:41:12.158Z,-4.76
2023-03-11T06:44:43.718Z,-5.12
2023-03-11T06:47:56.802Z,-5.16
2023-03-11T06:51:03.015Z,-5.19
2023-03-11T06:54:08.362Z,-5.40
2023-03-11T06:57:23.308Z,-5.28
2023-03-11T07:04:23.995Z,-4.91
2023-03-11T07:07:30.584Z,-4.92
2023-03-11T07:10:34.665Z,-4.95
2023-03-11T07:13:38.980Z,-5.26
2023-03-11T07:16:46.546Z,-5.09
2023-03-11T07:20:07.454Z,-4.99
2023-03-11T07:23:11.407Z,-4.87
2023-03-11T07:26:16.637Z,-4.73
2023-03-11T07:29:21.328Z,-4.74
2023-03-11T07:32:25.203Z,-5.04
2023-03-11T07:35:29.408Z,-4.92
2023-03-11T07:38:42.504Z,-4.92
2023-03-11T07:41:48.823Z,-4.88
2023-03-11T07:44:56.233Z,-4.87
2023-03-11T07:48:07.648Z,-5.09
2023-03-11T07:51:21.983Z,-5.20
2023-03-11T07:54:26.344Z,-5.28
2023-03-11T07:57:33.354Z,-5.32
2023-03-11T08:00:36.954Z,-5.33
2023-03-11T08:03:45.792Z,-5.12
2023-03-11T08:06:55.964Z,-5.18
2023-03-11T08:10:06.737Z,-5.12
2023-03-11T08:13:13.639Z,-5.18
2023-03-11T08:16:26.539Z,-5.20
2023-03-11T08:19:36.112Z,-5.36
2023-03-11T08:22:57.677Z,-5.30
2023-03-11T08:26:46.996Z,-5.39
2023-03-11T08:30:03.429Z,-5.43
2023-03-11T08:37:30.237Z,-5.37
2023-03-11T08:40:33.868Z,-5.40
2023-03-11T08:43:43.894Z,-5.32
2023-03-11T08:47:14.640Z,-5.33
2023-03-11T08:50:24.238Z,-5.29
2023-03-11T08:53:34.663Z,-5.18
2023-03-11T08:56:42.642Z,-5.18
2023-03-11T08:59:47.816Z,-5.09
2023-03-11T09:02:51.997Z,-5.16
2023-03-11T09:07:24.967Z,-5.18
2023-03-11T09:15:12.798Z,-5.42
2023-03-11T09:18:52.440Z,-5.60
2023-03-11T09:22:35.980Z,-5.62
2023-03-11T09:26:21.510Z,-5.71
2023-03-11T09:29:25.272Z,-5.75
2023-03-11T09:32:28.997Z,-5.78
2023-03-11T09:35:32.720Z,-5.77
2023-03-11T09:38:39.578Z,-5.70
2023-03-11T09:41:58.377Z,-5.78
2023-03-11T09:45:37.706Z,-5.84
2023-03-11T09:52:25.246Z,-5.99
2023-03-11T09:55:42.392Z,-6.03
2023-03-11T09:58:51.462Z,-6.19
2023-03-11T10:01:55.205Z,-6.15
2023-03-11T10:05:16.376Z,-6.33
2023-03-11T10:08:30.623Z,-6.40
2023-03-11T10:11:51.337Z,-6.46
2023-03-11T10:15:39.712Z,-6.61
2023-03-11T10:19:00.252Z,-6.81
2023-03-11T10:22:20.413Z,-6.98
2023-03-11T10:25:31.805Z,-7.12
2023-03-11T10:29:00.513Z,-7.31
2023-03-11T10:32:14.663Z,-7.46
2023-03-11T10:35:37.249Z,-7.59
2023-03-11T10:38:50.114Z,-7.73
2023-03-11T10:42:01.341Z,-7.84
2023-03-11T10:45:16.657Z,-7.92
2023-03-11T10:48:23.097Z,-7.98
2023-03-11T10:51:34.368Z,-7.99
2023-03-11T10:54:42.106Z,-8.10
2023-03-11T10:57:48.002Z,-8.17
2023-03-11T11:01:18.246Z,-8.22
2023-03-11T11:04:32.960Z,-8.29
2023-03-11T11:07:43.118Z,-8.34
2023-03-11T11:10:57.207Z,-8.41
2023-03-11T11:14:01.781Z,-8.47
2023-03-11T11:17:05.436Z,-8.52
2023-03-11T11:20:19.114Z,-8.59
2023-03-11T11:24:03.220Z,-8.65
2023-03-11T11:27:27.996Z,-8.68
2023-03-11T11:30:31.972Z,-8.75
2023-03-11T11:33:49.049Z,-8.79
2023-03-11T11:36:55.025Z,-8.82
2023-03-11T11:40:22.657Z,-8.86
2023-03-11T11:43:37.943Z,-8.91
2023-03-11T11:46:45.583Z,-8.93
2023-03-11T11:49:57.348Z,-8.99
2023-03-11T11:53:22.049Z,-9.00
2023-03-11T11:56:27.668Z,-9.05
2023-03-11T11:59:32.758Z,-9.10
2023-03-11T12:02:56.480Z,-9.13
2023-03-11T12:06:03.496Z,-9.17
2023-03-11T12:09:36.268Z,-9.22
2023-03-11T12:13:06.803Z,-9.26
2023-03-11T12:17:04.157Z,-9.31
2023-03-11T12:20:16.549Z,-9.33
2023-03-11T12:23:30.314Z,-9.34
2023-03-11T12:26:39.091Z,-9.37
2023-03-11T12:29:48.481Z,-9.41
2023-03-11T12:32:58.429Z,-9.47
2023-03-11T12:36:04.521Z,-9.54
2023-03-11T12:39:20.636Z,-9.61
2023-03-11T12:42:28.300Z,-9.69
2023-03-11T12:45:51.553Z,-9.72
2023-03-11T12:49:15.064Z,-9.75
2023-03-11T12:52:22.630Z,-9.82
2023-03-11T12:55:32.261Z,-9.85
2023-03-11T12:59:20.171Z,-9.90
2023-03-11T13:02:54.316Z,-9.99
2023-03-11T13:06:06.651Z,-10.05
2023-03-11T13:09:17.966Z,-10.07
2023-03-11T13:12:46.174Z,-10.14
2023-03-11T13:15:49.978Z,-10.13
2023-03-11T13:19:17.208Z,-10.20
2023-03-11T13:22:45.404Z,-10.27
2023-03-11T13:25:48.846Z,-10.27
2023-03-11T13:29:14.556Z,-10.30
2023-03-11T13:32:44.056Z,-10.31
2023-03-11T13:36:18.240Z,-10.38
2023-03-11T13:39:47.246Z,-10.42
2023-03-11T13:42:53.917Z,-10.49
2023-03-11T13:46:14.425Z,-10.53
2023-03-11T13:49:36.053Z,-10.63
2023-03-11T13:52:54.542Z,-10.68
2023-03-11T13:55:58.167Z,-10.71
2023-03-11T13:59:28.111Z,-10.77
2023-03-11T14:02:31.642Z,-10.84
2023-03-11T14:05:37.863Z,-10.84
2023-03-11T14:08:41.860Z,-10.90
2023-03-11T14:11:48.831Z,-10.96
2023-03-11T14:15:03.876Z,-11.00
2023-03-11T14:18:28.227Z,-11.07
2023-03-11T14:21:32.780Z,-11.14
2023-03-11T14:24:37.002Z,-11.21
2023-03-11T14:27:40.885Z,-11.25
2023-03-11T14:31:00.111Z,-11.25
2023-03-11T14:34:16.875Z,-11.30
2023-03-11T14:37:35.064Z,-11.25
2023-03-11T14:40:42.837Z,-11.34
2023-03-11T14:43:51.465Z,-11.39
2023-03-11T14:47:01.429Z,-11.44
2023-03-11T14:50:08.570Z,-11.48
2023-03-11T14:53:34.064Z,-11.53
2023-03-11T14:56:42.535Z,-11.61
2023-03-11T14:59:47.897Z,-11.61
2023-03-11T15:02:57.202Z,-11.67
2023-03-11T15:06:36.816Z,-11.73
2023-03-11T15:09:42.585Z,-11.79
2023-03-11T15:12:46.911Z,-11.84
2023-03-11T15:16:02.087Z,-11.90
2023-03-11T15:19:35.503Z,-11.94
2023-03-11T15:22:42.455Z,-12.00
2023-03-11T15:25:50.445Z,-12.04
2023-03-11T15:29:00.998Z,-12.08
2023-03-11T15:32:39.555Z,-12.11
2023-03-11T15:35:50.122Z,-12.18
2023-03-11T15:39:14.531Z,-12.22
2023-03-11T15:42:27.058Z,-12.27
2023-03-11T15:45:31.218Z,-12.31
2023-03-11T15:48:34.584Z,-12.29
2023-03-11T15:51:38.168Z,-12.32
2023-03-11T15:54:43.157Z,-12.34
2023-03-11T15:57:50.236Z,-12.38
2023-03-11T16:00:57.312Z,-12.36
2023-03-11T16:04:00.861Z,-12.45
2023-03-11T16:07:08.852Z,-12.45
2023-03-11T16:10:12.893Z,-12.48
2023-03-11T16:13:20.216Z,-12.52
2023-03-11T16:16:23.948Z,-12.53
2023-03-11T16:19:27.608Z,-12.59
2023-03-11T16:22:46.850Z,-12.66
2023-03-11T16:25:58.534Z,-12.67
2023-03-11T16:29:18.174Z,-12.69
2023-03-11T16:32:25.718Z,-12.70
2023-03-11T16:35:29.425Z,-12.72
2023-03-11T16:38:42.328Z,-12.74
2023-03-11T16:41:46.034Z,-12.79
2023-03-11T16:44:49.508Z,-12.81
2023-03-11T16:47:53.093Z,-12.93
2023-03-11T16:50:59.393Z,-12.98
2023-03-11T16:54:02.880Z,-13.07
2023-03-11T16:57:06.240Z,-13.04
2023-03-11T17:00:12.180Z,-13.04
2023-03-11T17:03:21.091Z,-13.04
2023-03-11T17:06:24.893Z,-13.08
2023-03-11T17:09:28.320Z,-13.10
2023-03-11T17:12:31.828Z,-13.18
2023-03-11T17:15:36.422Z,-13.23
2023-03-11T17:18:40.122Z,-13.26
2023-03-11T17:21:44.354Z,-13.33
2023-03-11T17:24:47.756Z,-13.38
2023-03-11T17:27:51.497Z,-13.42
2023-03-11T17:30:56.870Z,-13.42
2023-03-11T17:34:00.325Z,-13.44
2023-03-11T17:37:03.944Z,-13.46
2023-03-11T17:40:08.115Z,-13.51
2023-03-11T17:43:11.641Z,-13.53
2023-03-11T17:46:18.136Z,-13.56
2023-03-11T17:49:24.520Z,-13.59
2023-03-11T17:52:28.210Z,-13.61
2023-03-11T17:55:32.224Z,-13.68
2023-03-11T17:58:36.576Z,-13.70
2023-03-11T18:01:40.163Z,-13.73
2023-03-11T18:04:46.760Z,-13.68
2023-03-11T18:07:50.515Z,-13.73
2023-03-11T18:10:58.923Z,-13.78
2023-03-11T18:14:02.313Z,-13.79
2023-03-11T18:17:05.946Z,-13.92
2023-03-11T18:20:10.117Z,-14.01
2023-03-11T18:23:13.644Z,-14.09
2023-03-11T18:26:19.423Z,-14.18
2023-03-11T18:29:24.335Z,-14.21
2023-03-11T18:32:27.956Z,-14.26
2023-03-11T18:35:31.538Z,-14.26
2023-03-11T18:38:35.021Z,-14.25
2023-03-11T18:41:38.471Z,-14.21
2023-03-11T18:44:49.545Z,-14.23
2023-03-11T18:48:18.348Z,-14.21
2023-03-11T18:51:34.602Z,-14.22
2023-03-11T18:54:38.241Z,-14.21
2023-03-11T18:57:43.813Z,-14.16
2023-03-11T19:00:48.330Z,-14.12
2023-03-11T19:04:17.156Z,-14.13
2023-03-11T19:07:20.678Z,-14.15
2023-03-11T19:10:24.056Z,-14.21
2023-03-11T19:13:40.763Z,-14.19
2023-03-11T19:16:50.311Z,-14.19
2023-03-11T19:19:53.926Z,-14.19
2023-03-11T19:22:57.426Z,-14.18
2023-03-11T19:26:03.415Z,-14.22
2023-03-11T19:29:07.774Z,-14.21
2023-03-11T19:32:11.243Z,-14.15
2023-03-11T19:35:17.556Z,-14.19
2023-03-11T19:38:22.333Z,-14.16
2023-03-11T19:41:25.865Z,-14.21
2023-03-11T19:44:29.222Z,-14.26
2023-03-11T19:47:32.734Z,-14.22
2023-03-11T19:50:36.332Z,-14.21
2023-03-11T19:53:41.333Z,-14.28
2023-03-11T19:56:44.982Z,-14.42
2023-03-11T19:59:48.502Z,-14.54
2023-03-11T20:02:52.033Z,-14.70
2023-03-11T20:05:58.580Z,-14.81
2023-03-11T20:09:02.222Z,-14.89
2023-03-11T20:12:05.927Z,-14.93
2023-03-11T20:15:09.779Z,-15.00
2023-03-11T20:18:13.312Z,-15.05
2023-03-11T20:21:17.060Z,-15.09
2023-03-11T20:24:20.510Z,-15.07
2023-03-11T20:27:25.445Z,-15.06
2023-03-11T20:30:32.248Z,-15.07
2023-03-11T20:33:37.548Z,-15.07
2023-03-11T20:36:41.078Z,-15.06
2023-03-11T20:39:44.627Z,-15.05
2023-03-11T20:42:48.178Z,-15.07
2023-03-11T20:45:51.785Z,-15.15
2023-03-11T20:48:55.298Z,-15.17
2023-03-11T20:51:58.843Z,-15.19
2023-03-11T20:55:03.537Z,-15.22
2023-03-11T20:58:07.133Z,-15.22
2023-03-11T21:01:38.226Z,-15.26
2023-03-11T21:04:43.672Z,-15.33
2023-03-11T21:07:49.975Z,-15.37
2023-03-11T21:11:05.107Z,-15.36
2023-03-11T21:14:09.452Z,-15.41
2023-03-11T21:17:12.939Z,-15.54
2023-03-11T21:20:17.592Z,-15.59
2023-03-11T21:23:24.018Z,-15.65
2023-03-11T21:26:27.806Z,-15.71
2023-03-11T21:29:34.314Z,-15.72
2023-03-11T21:32:37.779Z,-15.79
2023-03-11T21:35:41.505Z,-15.76
2023-03-11T21:38:45.143Z,-15.78
2023-03-11T21:41:49.150Z,-15.75
2023-03-11T21:44:55.852Z,-15.73
2023-03-11T21:48:02.875Z,-15.72
2023-03-11T21:51:07.541Z,-15.71
2023-03-11T21:54:11.837Z,-15.78
2023-03-11T21:57:15.430Z,-15.81
2023-03-11T22:00:19.478Z,-15.87
2023-03-11T22:03:23.671Z,-15.94
2023-03-11T22:06:27.505Z,-15.94
2023-03-11T22:09:31.242Z,-15.94
2023-03-11T22:12:35.055Z,-15.97
2023-03-11T22:15:42.089Z,-15.92
2023-03-11T22:18:45.976Z,-15.93
2023-03-11T22:21:53.574Z,-16.04
2023-03-11T22:24:57.049Z,-15.96
2023-03-11T22:28:00.652Z,-16.00
2023-03-11T22:31:09.634Z,-16.09
2023-03-11T22:34:13.136Z,-16.18
2023-03-11T22:37:16.816Z,-16.32
2023-03-11T22:40:20.420Z,-16.38
2023-03-11T22:43:27.349Z,-16.38
2023-03-11T22:46:31.238Z,-16.28
2023-03-11T22:49:38.039Z,-16.18
2023-03-11T22:52:41.569Z,-16.13
2023-03-11T22:55:48.322Z,-16.07
2023-03-11T22:58:51.796Z,-16.21
2023-03-11T23:01:55.930Z,-16.10
2023-03-11T23:04:59.422Z,-15.97
2023-03-11T23:08:03.043Z,-15.89
2023-03-11T23:11:09.417Z,-15.85
2023-03-11T23:14:12.894Z,-15.90
2023-03-11T23:17:16.359Z,-15.94
2023-03-11T23:20:20.197Z,-15.90
2023-03-11T23:23:23.639Z,-15.87
2023-03-11T23:26:27.573Z,-15.87
2023-03-11T23:29:31.191Z,-15.89
2023-03-11T23:32:34.749Z,-15.76
2023-03-11T23:35:42.956Z,-15.43
2023-03-11T23:38:52.741Z,-14.65
2023-03-11T23:41:57.177Z,-13.82
2023-03-11T23:45:00.970Z,-13.04
2023-03-11T23:48:04.468Z,-12.35
2023-03-11T23:51:11.030Z,-11.55
2023-03-11T23:54:14.535Z,-10.77
2023-03-11T23:57:18.206Z,-10.16
